sensor_id;sensor_type;location;lat;lon;timestamp;P1;durP1;ratioP1;P2;durP2;ratioP2
5604;SDS011;9297;47.258;11.362;2024-01-11T00:22:58;17.90;;;10.87;;
5604;SDS011;9297;47.258;11.362;2024-01-11T00:25:26;16.20;;;10.30;;
5604;SDS011;9297;47.258;11.362;2024-01-11T00:27:53;16.67;;;10.33;;
5604;SDS011;9297;47.258;11.362;2024-01-11T01:08:03;21.27;;;12.83;;
5604;SDS011;9297;47.258;11.362;2024-01-11T01:10:30;18.20;;;11.97;;
5604;SDS011;9297;47.258;11.362;2024-01-11T01:12:57;21.57;;;12.47;;
5604;SDS011;9297;47.258;11.362;2024-01-11T01:15:24;23.57;;;14.23;;
5604;SDS011;9297;47.258;11.362;2024-01-11T01:17:52;24.13;;;14.97;;
5604;SDS011;9297;47.258;11.362;2024-01-11T01:20:19;23.50;;;13.73;;
5604;SDS011;9297;47.258;11.362;2024-01-11T01:22:47;22.47;;;14.40;;
5604;SDS011;9297;47.258;11.362;2024-01-11T01:25:17;24.87;;;14.77;;
5604;SDS011;9297;47.258;11.362;2024-01-11T01:27:44;25.97;;;14.90;;
5604;SDS011;9297;47.258;11.362;2024-01-11T01:30:14;26.70;;;14.87;;
5604;SDS011;9297;47.258;11.362;2024-01-11T01:32:41;23.90;;;14.50;;
5604;SDS011;9297;47.258;11.362;2024-01-11T01:37:51;26.27;;;14.47;;
5604;SDS011;9297;47.258;11.362;2024-01-11T01:56:34;22.53;;;12.80;;
5604;SDS011;9297;47.258;11.362;2024-01-11T01:59:02;19.67;;;12.53;;
5604;SDS011;9297;47.258;11.362;2024-01-11T02:04:12;17.17;;;11.73;;
5604;SDS011;9297;47.258;11.362;2024-01-11T02:06:55;21.83;;;12.60;;
5604;SDS011;9297;47.258;11.362;2024-01-11T02:09:24;17.17;;;11.20;;
5604;SDS011;9297;47.258;11.362;2024-01-11T02:17:17;19.50;;;12.33;;
5604;SDS011;9297;47.258;11.362;2024-01-11T02:19:44;17.57;;;11.87;;
5604;SDS011;9297;47.258;11.362;2024-01-11T02:22:12;18.00;;;11.67;;
5604;SDS011;9297;47.258;11.362;2024-01-11T02:24:48;18.10;;;11.03;;
5604;SDS011;9297;47.258;11.362;2024-01-11T02:27:15;17.77;;;11.47;;
5604;SDS011;9297;47.258;11.362;2024-01-11T02:29:43;17.87;;;11.93;;
5604;SDS011;9297;47.258;11.362;2024-01-11T02:32:10;16.50;;;11.37;;
5604;SDS011;9297;47.258;11.362;2024-01-11T02:34:37;15.37;;;10.27;;
5604;SDS011;9297;47.258;11.362;2024-01-11T02:37:04;15.63;;;10.60;;
5604;SDS011;9297;47.258;11.362;2024-01-11T02:39:32;20.10;;;11.33;;
5604;SDS011;9297;47.258;11.362;2024-01-11T02:42:01;14.00;;;9.07;;
5604;SDS011;9297;47.258;11.362;2024-01-11T02:44:28;19.27;;;11.40;;
5604;SDS011;9297;47.258;11.362;2024-01-11T02:46:55;18.50;;;11.23;;
5604;SDS011;9297;47.258;11.362;2024-01-11T02:49:22;15.70;;;10.53;;
5604;SDS011;9297;47.258;11.362;2024-01-11T02:51:49;14.60;;;9.43;;
5604;SDS011;9297;47.258;11.362;2024-01-11T02:54:19;15.27;;;10.90;;
5604;SDS011;9297;47.258;11.362;2024-01-11T02:56:46;16.67;;;11.23;;
5604;SDS011;9297;47.258;11.362;2024-01-11T02:59:14;16.00;;;10.70;;
5604;SDS011;9297;47.258;11.362;2024-01-11T03:01:41;18.00;;;10.73;;
5604;SDS011;9297;47.258;11.362;2024-01-11T03:04:08;16.97;;;11.13;;
5604;SDS011;9297;47.258;11.362;2024-01-11T03:06:35;18.50;;;10.03;;
5604;SDS011;9297;47.258;11.362;2024-01-11T03:09:02;17.30;;;10.77;;
5604;SDS011;9297;47.258;11.362;2024-01-11T03:11:29;13.00;;;9.00;;
5604;SDS011;9297;47.258;11.362;2024-01-11T03:13:56;14.40;;;9.27;;
5604;SDS011;9297;47.258;11.362;2024-01-11T03:16:25;17.17;;;10.33;;
5604;SDS011;9297;47.258;11.362;2024-01-11T03:18:52;16.93;;;10.77;;
5604;SDS011;9297;47.258;11.362;2024-01-11T03:21:19;15.80;;;10.30;;
5604;SDS011;9297;47.258;11.362;2024-01-11T03:23:46;13.80;;;9.70;;
5604;SDS011;9297;47.258;11.362;2024-01-11T03:26:14;14.33;;;9.20;;
5604;SDS011;9297;47.258;11.362;2024-01-11T03:28:42;18.50;;;10.07;;
5604;SDS011;9297;47.258;11.362;2024-01-11T03:31:09;15.00;;;10.30;;
5604;SDS011;9297;47.258;11.362;2024-01-11T03:33:38;15.03;;;9.87;;
5604;SDS011;9297;47.258;11.362;2024-01-11T03:36:06;15.00;;;9.07;;
5604;SDS011;9297;47.258;11.362;2024-01-11T03:38:33;17.23;;;9.80;;
5604;SDS011;9297;47.258;11.362;2024-01-11T03:41:00;13.93;;;9.60;;
5604;SDS011;9297;47.258;11.362;2024-01-11T03:43:28;16.77;;;11.00;;
5604;SDS011;9297;47.258;11.362;2024-01-11T03:45:55;19.23;;;10.43;;
5604;SDS011;9297;47.258;11.362;2024-01-11T03:48:22;17.87;;;11.27;;
5604;SDS011;9297;47.258;11.362;2024-01-11T03:50:50;15.60;;;9.87;;
5604;SDS011;9297;47.258;11.362;2024-01-11T03:53:17;16.73;;;10.80;;
5604;SDS011;9297;47.258;11.362;2024-01-11T03:55:44;16.10;;;10.10;;
5604;SDS011;9297;47.258;11.362;2024-01-11T03:58:11;18.30;;;11.23;;
5604;SDS011;9297;47.258;11.362;2024-01-11T04:00:38;16.23;;;10.77;;
5604;SDS011;9297;47.258;11.362;2024-01-11T04:03:06;17.70;;;10.33;;
5604;SDS011;9297;47.258;11.362;2024-01-11T04:05:33;14.97;;;10.67;;
5604;SDS011;9297;47.258;11.362;2024-01-11T04:08:04;15.60;;;9.37;;
5604;SDS011;9297;47.258;11.362;2024-01-11T04:10:31;17.97;;;10.13;;
5604;SDS011;9297;47.258;11.362;2024-01-11T04:12:58;18.03;;;11.33;;
5604;SDS011;9297;47.258;11.362;2024-01-11T04:15:25;17.27;;;10.27;;
5604;SDS011;9297;47.258;11.362;2024-01-11T04:17:52;13.83;;;9.97;;
5604;SDS011;9297;47.258;11.362;2024-01-11T04:20:19;15.63;;;10.30;;
5604;SDS011;9297;47.258;11.362;2024-01-11T04:22:47;12.00;;;9.20;;
5604;SDS011;9297;47.258;11.362;2024-01-11T04:25:15;16.20;;;10.13;;
5604;SDS011;9297;47.258;11.362;2024-01-11T04:27:42;16.77;;;10.80;;
5604;SDS011;9297;47.258;11.362;2024-01-11T04:30:09;15.30;;;9.50;;
5604;SDS011;9297;47.258;11.362;2024-01-11T04:32:36;14.50;;;10.33;;
5604;SDS011;9297;47.258;11.362;2024-01-11T04:35:04;16.10;;;10.93;;
5604;SDS011;9297;47.258;11.362;2024-01-11T04:37:31;14.07;;;9.57;;
5604;SDS011;9297;47.258;11.362;2024-01-11T04:39:58;18.53;;;11.13;;
5604;SDS011;9297;47.258;11.362;2024-01-11T04:42:27;15.80;;;10.90;;
5604;SDS011;9297;47.258;11.362;2024-01-11T04:44:54;16.90;;;10.53;;
5604;SDS011;9297;47.258;11.362;2024-01-11T04:47:21;16.53;;;11.03;;
5604;SDS011;9297;47.258;11.362;2024-01-11T04:49:48;14.40;;;9.57;;
5604;SDS011;9297;47.258;11.362;2024-01-11T04:52:15;19.07;;;11.33;;
5604;SDS011;9297;47.258;11.362;2024-01-11T04:54:42;19.43;;;12.23;;
5604;SDS011;9297;47.258;11.362;2024-01-11T04:57:09;20.63;;;11.97;;
5604;SDS011;9297;47.258;11.362;2024-01-11T04:59:37;16.67;;;10.97;;
5604;SDS011;9297;47.258;11.362;2024-01-11T05:02:04;15.00;;;10.33;;
5604;SDS011;9297;47.258;11.362;2024-01-11T05:04:31;14.57;;;9.57;;
5604;SDS011;9297;47.258;11.362;2024-01-11T05:06:58;16.47;;;10.93;;
5604;SDS011;9297;47.258;11.362;2024-01-11T05:09:25;15.17;;;9.27;;
5604;SDS011;9297;47.258;11.362;2024-01-11T05:11:52;16.40;;;9.77;;
5604;SDS011;9297;47.258;11.362;2024-01-11T05:14:19;15.43;;;10.33;;
5604;SDS011;9297;47.258;11.362;2024-01-11T05:16:47;15.60;;;10.53;;
5604;SDS011;9297;47.258;11.362;2024-01-11T05:19:14;11.77;;;8.63;;
5604;SDS011;9297;47.258;11.362;2024-01-11T05:21:41;15.80;;;9.60;;
5604;SDS011;9297;47.258;11.362;2024-01-11T05:24:08;13.60;;;9.40;;
5604;SDS011;9297;47.258;11.362;2024-01-11T05:26:37;15.23;;;9.80;;
5604;SDS011;9297;47.258;11.362;2024-01-11T05:29:04;13.27;;;9.20;;
5604;SDS011;9297;47.258;11.362;2024-01-11T05:31:32;16.23;;;10.17;;
5604;SDS011;9297;47.258;11.362;2024-01-11T05:34:00;16.13;;;10.40;;
5604;SDS011;9297;47.258;11.362;2024-01-11T05:36:28;17.73;;;10.77;;
5604;SDS011;9297;47.258;11.362;2024-01-11T05:38:55;18.83;;;11.73;;
5604;SDS011;9297;47.258;11.362;2024-01-11T05:41:22;16.40;;;10.47;;
5604;SDS011;9297;47.258;11.362;2024-01-11T05:43:49;14.83;;;9.67;;
5604;SDS011;9297;47.258;11.362;2024-01-11T05:46:16;16.37;;;10.57;;
5604;SDS011;9297;47.258;11.362;2024-01-11T05:48:43;12.97;;;9.33;;
5604;SDS011;9297;47.258;11.362;2024-01-11T05:51:11;13.83;;;10.23;;
5604;SDS011;9297;47.258;11.362;2024-01-11T05:53:38;16.67;;;10.77;;
5604;SDS011;9297;47.258;11.362;2024-01-11T05:56:09;14.70;;;9.97;;
5604;SDS011;9297;47.258;11.362;2024-01-11T05:58:37;14.00;;;9.67;;
5604;SDS011;9297;47.258;11.362;2024-01-11T06:01:06;16.27;;;10.23;;
5604;SDS011;9297;47.258;11.362;2024-01-11T06:03:33;11.03;;;7.53;;
5604;SDS011;9297;47.258;11.362;2024-01-11T06:06:02;21.93;;;14.83;;
5604;SDS011;9297;47.258;11.362;2024-01-11T06:08:31;17.63;;;13.90;;
5604;SDS011;9297;47.258;11.362;2024-01-11T06:10:58;15.17;;;10.10;;
5604;SDS011;9297;47.258;11.362;2024-01-11T06:13:25;13.63;;;9.57;;
5604;SDS011;9297;47.258;11.362;2024-01-11T06:15:52;14.27;;;9.33;;
5604;SDS011;9297;47.258;11.362;2024-01-11T06:18:19;16.30;;;10.27;;
5604;SDS011;9297;47.258;11.362;2024-01-11T06:20:47;13.63;;;10.00;;
5604;SDS011;9297;47.258;11.362;2024-01-11T06:23:14;17.70;;;11.33;;
5604;SDS011;9297;47.258;11.362;2024-01-11T06:25:42;14.20;;;10.27;;
5604;SDS011;9297;47.258;11.362;2024-01-11T06:28:09;15.03;;;10.57;;
5604;SDS011;9297;47.258;11.362;2024-01-11T06:30:36;15.97;;;10.77;;
5604;SDS011;9297;47.258;11.362;2024-01-11T06:33:03;19.57;;;11.67;;
5604;SDS011;9297;47.258;11.362;2024-01-11T06:35:30;19.10;;;11.80;;
5604;SDS011;9297;47.258;11.362;2024-01-11T06:37:57;16.40;;;10.83;;
5604;SDS011;9297;47.258;11.362;2024-01-11T06:40:24;16.40;;;10.03;;
5604;SDS011;9297;47.258;11.362;2024-01-11T06:42:53;16.80;;;9.90;;
5604;SDS011;9297;47.258;11.362;2024-01-11T06:45:20;18.10;;;10.20;;
5604;SDS011;9297;47.258;11.362;2024-01-11T06:47:47;20.00;;;11.50;;
5604;SDS011;9297;47.258;11.362;2024-01-11T06:50:14;20.63;;;12.10;;
5604;SDS011;9297;47.258;11.362;2024-01-11T06:52:41;22.73;;;13.10;;
5604;SDS011;9297;47.258;11.362;2024-01-11T06:55:08;20.17;;;12.00;;
5604;SDS011;9297;47.258;11.362;2024-01-11T06:57:35;22.03;;;12.27;;
5604;SDS011;9297;47.258;11.362;2024-01-11T07:00:04;16.67;;;10.83;;
5604;SDS011;9297;47.258;11.362;2024-01-11T07:02:32;18.40;;;10.87;;
5604;SDS011;9297;47.258;11.362;2024-01-11T07:04:59;15.60;;;9.70;;
5604;SDS011;9297;47.258;11.362;2024-01-11T07:07:26;15.33;;;10.27;;
5604;SDS011;9297;47.258;11.362;2024-01-11T07:09:53;15.80;;;10.20;;
5604;SDS011;9297;47.258;11.362;2024-01-11T07:12:20;16.63;;;10.13;;
5604;SDS011;9297;47.258;11.362;2024-01-11T07:14:47;16.67;;;10.30;;
5604;SDS011;9297;47.258;11.362;2024-01-11T07:17:15;15.43;;;10.43;;
5604;SDS011;9297;47.258;11.362;2024-01-11T07:19:42;18.70;;;10.87;;
5604;SDS011;9297;47.258;11.362;2024-01-11T07:22:09;14.97;;;10.23;;
5604;SDS011;9297;47.258;11.362;2024-01-11T07:24:37;20.17;;;11.70;;
5604;SDS011;9297;47.258;11.362;2024-01-11T07:27:04;17.43;;;10.33;;
5604;SDS011;9297;47.258;11.362;2024-01-11T07:29:32;17.50;;;10.83;;
5604;SDS011;9297;47.258;11.362;2024-01-11T07:31:59;18.57;;;10.50;;
5604;SDS011;9297;47.258;11.362;2024-01-11T07:34:28;17.93;;;11.23;;
5604;SDS011;9297;47.258;11.362;2024-01-11T07:36:55;17.63;;;11.37;;
5604;SDS011;9297;47.258;11.362;2024-01-11T07:39:22;20.60;;;12.17;;
5604;SDS011;9297;47.258;11.362;2024-01-11T07:41:49;20.70;;;12.33;;
5604;SDS011;9297;47.258;11.362;2024-01-11T07:44:16;22.33;;;12.87;;
5604;SDS011;9297;47.258;11.362;2024-01-11T07:46:44;21.27;;;11.60;;
5604;SDS011;9297;47.258;11.362;2024-01-11T07:49:19;17.80;;;11.23;;
5604;SDS011;9297;47.258;11.362;2024-01-11T07:51:48;20.47;;;12.77;;
5604;SDS011;9297;47.258;11.362;2024-01-11T07:54:15;17.80;;;11.30;;
5604;SDS011;9297;47.258;11.362;2024-01-11T07:56:42;19.97;;;12.13;;
5604;SDS011;9297;47.258;11.362;2024-01-11T07:59:09;20.07;;;11.33;;
5604;SDS011;9297;47.258;11.362;2024-01-11T08:01:36;22.07;;;12.73;;
5604;SDS011;9297;47.258;11.362;2024-01-11T08:04:03;19.10;;;11.57;;
5604;SDS011;9297;47.258;11.362;2024-01-11T08:06:30;21.23;;;12.47;;
5604;SDS011;9297;47.258;11.362;2024-01-11T08:08:59;19.73;;;11.87;;
5604;SDS011;9297;47.258;11.362;2024-01-11T08:11:26;20.53;;;11.50;;
5604;SDS011;9297;47.258;11.362;2024-01-11T08:13:58;19.20;;;11.70;;
5604;SDS011;9297;47.258;11.362;2024-01-11T08:16:25;19.13;;;11.60;;
5604;SDS011;9297;47.258;11.362;2024-01-11T08:18:52;21.23;;;11.83;;
5604;SDS011;9297;47.258;11.362;2024-01-11T08:21:19;17.57;;;11.50;;
5604;SDS011;9297;47.258;11.362;2024-01-11T08:23:45;17.07;;;11.10;;
5604;SDS011;9297;47.258;11.362;2024-01-11T08:26:14;21.43;;;11.40;;
5604;SDS011;9297;47.258;11.362;2024-01-11T08:28:41;18.50;;;10.93;;
5604;SDS011;9297;47.258;11.362;2024-01-11T08:31:08;21.43;;;11.97;;
5604;SDS011;9297;47.258;11.362;2024-01-11T08:33:36;18.07;;;11.87;;
5604;SDS011;9297;47.258;11.362;2024-01-11T08:36:04;16.47;;;11.10;;
5604;SDS011;9297;47.258;11.362;2024-01-11T08:38:31;18.67;;;11.10;;
5604;SDS011;9297;47.258;11.362;2024-01-11T08:40:58;18.30;;;11.13;;
5604;SDS011;9297;47.258;11.362;2024-01-11T08:43:27;19.63;;;12.30;;
5604;SDS011;9297;47.258;11.362;2024-01-11T08:45:54;19.97;;;11.23;;
5604;SDS011;9297;47.258;11.362;2024-01-11T08:48:21;20.07;;;12.00;;
5604;SDS011;9297;47.258;11.362;2024-01-11T08:50:48;17.70;;;10.97;;
5604;SDS011;9297;47.258;11.362;2024-01-11T08:53:15;19.23;;;12.10;;
5604;SDS011;9297;47.258;11.362;2024-01-11T08:55:42;17.10;;;10.93;;
5604;SDS011;9297;47.258;11.362;2024-01-11T08:58:12;18.80;;;11.97;;
5604;SDS011;9297;47.258;11.362;2024-01-11T09:00:40;20.23;;;11.80;;
5604;SDS011;9297;47.258;11.362;2024-01-11T09:03:07;16.70;;;10.67;;
5604;SDS011;9297;47.258;11.362;2024-01-11T09:05:34;17.47;;;11.00;;
5604;SDS011;9297;47.258;11.362;2024-01-11T09:08:02;16.87;;;10.77;;
5604;SDS011;9297;47.258;11.362;2024-01-11T09:10:29;17.30;;;11.23;;
5604;SDS011;9297;47.258;11.362;2024-01-11T09:12:59;19.43;;;11.23;;
5604;SDS011;9297;47.258;11.362;2024-01-11T09:15:26;17.93;;;11.40;;
5604;SDS011;9297;47.258;11.362;2024-01-11T09:17:54;17.17;;;11.20;;
5604;SDS011;9297;47.258;11.362;2024-01-11T09:20:21;18.20;;;11.43;;
5604;SDS011;9297;47.258;11.362;2024-01-11T09:22:48;20.43;;;12.20;;
5604;SDS011;9297;47.258;11.362;2024-01-11T09:25:15;17.77;;;10.87;;
5604;SDS011;9297;47.258;11.362;2024-01-11T09:27:42;18.63;;;11.87;;
5604;SDS011;9297;47.258;11.362;2024-01-11T09:30:09;18.97;;;11.87;;
5604;SDS011;9297;47.258;11.362;2024-01-11T09:32:37;19.80;;;11.93;;
5604;SDS011;9297;47.258;11.362;2024-01-11T09:35:06;18.70;;;13.10;;
5604;SDS011;9297;47.258;11.362;2024-01-11T09:37:35;21.50;;;12.63;;
5604;SDS011;9297;47.258;11.362;2024-01-11T09:40:02;17.80;;;12.47;;
5604;SDS011;9297;47.258;11.362;2024-01-11T09:42:30;21.40;;;14.67;;
5604;SDS011;9297;47.258;11.362;2024-01-11T09:44:57;22.73;;;14.80;;
5604;SDS011;9297;47.258;11.362;2024-01-11T09:47:26;22.00;;;13.43;;
5604;SDS011;9297;47.258;11.362;2024-01-11T09:49:55;21.53;;;12.40;;
5604;SDS011;9297;47.258;11.362;2024-01-11T09:52:24;19.47;;;12.57;;
5604;SDS011;9297;47.258;11.362;2024-01-11T09:54:54;20.13;;;13.17;;
5604;SDS011;9297;47.258;11.362;2024-01-11T09:57:22;19.17;;;12.77;;
5604;SDS011;9297;47.258;11.362;2024-01-11T09:59:50;24.53;;;14.47;;
5604;SDS011;9297;47.258;11.362;2024-01-11T10:02:21;24.57;;;15.47;;
5604;SDS011;9297;47.258;11.362;2024-01-11T10:04:49;21.27;;;13.97;;
5604;SDS011;9297;47.258;11.362;2024-01-11T10:07:16;22.10;;;14.63;;
5604;SDS011;9297;47.258;11.362;2024-01-11T10:09:45;22.80;;;14.47;;
5604;SDS011;9297;47.258;11.362;2024-01-11T10:12:13;18.27;;;12.73;;
5604;SDS011;9297;47.258;11.362;2024-01-11T10:14:40;18.93;;;12.00;;
5604;SDS011;9297;47.258;11.362;2024-01-11T10:17:07;17.57;;;12.07;;
5604;SDS011;9297;47.258;11.362;2024-01-11T10:19:36;22.03;;;13.30;;
5604;SDS011;9297;47.258;11.362;2024-01-11T10:22:03;16.60;;;12.53;;
5604;SDS011;9297;47.258;11.362;2024-01-11T10:24:30;18.53;;;12.33;;
5604;SDS011;9297;47.258;11.362;2024-01-11T10:26:59;18.67;;;12.83;;
5604;SDS011;9297;47.258;11.362;2024-01-11T10:29:27;15.23;;;11.33;;
5604;SDS011;9297;47.258;11.362;2024-01-11T10:31:56;20.87;;;12.70;;
5604;SDS011;9297;47.258;11.362;2024-01-11T10:34:23;18.27;;;12.80;;
5604;SDS011;9297;47.258;11.362;2024-01-11T10:36:50;19.17;;;12.53;;
5604;SDS011;9297;47.258;11.362;2024-01-11T10:39:17;19.27;;;12.33;;
5604;SDS011;9297;47.258;11.362;2024-01-11T10:41:51;17.20;;;12.20;;
5604;SDS011;9297;47.258;11.362;2024-01-11T10:44:21;17.70;;;12.97;;
5604;SDS011;9297;47.258;11.362;2024-01-11T10:46:49;18.77;;;11.87;;
5604;SDS011;9297;47.258;11.362;2024-01-11T10:49:17;18.17;;;12.13;;
5604;SDS011;9297;47.258;11.362;2024-01-11T10:51:48;16.43;;;12.53;;
5604;SDS011;9297;47.258;11.362;2024-01-11T10:54:19;18.77;;;12.37;;
5604;SDS011;9297;47.258;11.362;2024-01-11T10:56:48;17.20;;;12.13;;
5604;SDS011;9297;47.258;11.362;2024-01-11T10:59:16;15.00;;;11.20;;
5604;SDS011;9297;47.258;11.362;2024-01-11T11:01:47;17.70;;;11.63;;
5604;SDS011;9297;47.258;11.362;2024-01-11T11:04:14;14.73;;;10.97;;
5604;SDS011;9297;47.258;11.362;2024-01-11T11:06:42;14.50;;;10.70;;
5604;SDS011;9297;47.258;11.362;2024-01-11T11:09:10;15.77;;;12.03;;
5604;SDS011;9297;47.258;11.362;2024-01-11T11:11:37;16.20;;;11.23;;
5604;SDS011;9297;47.258;11.362;2024-01-11T11:14:05;13.90;;;10.40;;
5604;SDS011;9297;47.258;11.362;2024-01-11T11:16:33;17.17;;;10.60;;
5604;SDS011;9297;47.258;11.362;2024-01-11T11:19:01;14.13;;;10.07;;
5604;SDS011;9297;47.258;11.362;2024-01-11T11:21:29;15.13;;;9.77;;
5604;SDS011;9297;47.258;11.362;2024-01-11T11:23:55;13.47;;;9.37;;
5604;SDS011;9297;47.258;11.362;2024-01-11T11:26:22;13.53;;;9.57;;
5604;SDS011;9297;47.258;11.362;2024-01-11T11:28:53;13.73;;;9.13;;
5604;SDS011;9297;47.258;11.362;2024-01-11T11:31:34;15.73;;;9.40;;
5604;SDS011;9297;47.258;11.362;2024-01-11T11:34:02;10.83;;;8.67;;
5604;SDS011;9297;47.258;11.362;2024-01-11T11:36:30;11.20;;;8.10;;
5604;SDS011;9297;47.258;11.362;2024-01-11T11:38:59;13.67;;;8.93;;
5604;SDS011;9297;47.258;11.362;2024-01-11T11:41:27;12.67;;;8.43;;
5604;SDS011;9297;47.258;11.362;2024-01-11T11:44:00;11.17;;;7.77;;
5604;SDS011;9297;47.258;11.362;2024-01-11T11:46:27;9.93;;;7.07;;
5604;SDS011;9297;47.258;11.362;2024-01-11T11:48:54;10.30;;;7.10;;
5604;SDS011;9297;47.258;11.362;2024-01-11T11:51:23;9.20;;;6.83;;
5604;SDS011;9297;47.258;11.362;2024-01-11T11:53:54;7.97;;;5.77;;
5604;SDS011;9297;47.258;11.362;2024-01-11T11:56:22;12.20;;;7.63;;
5604;SDS011;9297;47.258;11.362;2024-01-11T11:58:49;12.80;;;8.00;;
5604;SDS011;9297;47.258;11.362;2024-01-11T12:01:16;13.67;;;8.83;;
5604;SDS011;9297;47.258;11.362;2024-01-11T12:03:44;13.43;;;8.80;;
5604;SDS011;9297;47.258;11.362;2024-01-11T12:06:12;11.17;;;7.93;;
5604;SDS011;9297;47.258;11.362;2024-01-11T12:08:42;14.43;;;8.47;;
5604;SDS011;9297;47.258;11.362;2024-01-11T12:11:12;14.97;;;7.90;;
5604;SDS011;9297;47.258;11.362;2024-01-11T12:13:40;12.13;;;5.83;;
5604;SDS011;9297;47.258;11.362;2024-01-11T12:16:07;7.97;;;5.30;;
5604;SDS011;9297;47.258;11.362;2024-01-11T12:18:34;6.50;;;5.57;;
5604;SDS011;9297;47.258;11.362;2024-01-11T12:21:01;7.67;;;6.07;;
5604;SDS011;9297;47.258;11.362;2024-01-11T12:23:28;7.53;;;5.80;;
5604;SDS011;9297;47.258;11.362;2024-01-11T12:25:57;7.97;;;6.20;;
5604;SDS011;9297;47.258;11.362;2024-01-11T12:28:24;8.47;;;5.73;;
5604;SDS011;9297;47.258;11.362;2024-01-11T12:30:51;8.63;;;6.33;;
5604;SDS011;9297;47.258;11.362;2024-01-11T12:33:18;7.83;;;6.57;;
5604;SDS011;9297;47.258;11.362;2024-01-11T12:35:46;8.23;;;6.03;;
5604;SDS011;9297;47.258;11.362;2024-01-11T12:38:14;9.30;;;6.13;;
5604;SDS011;9297;47.258;11.362;2024-01-11T12:40:41;8.07;;;6.23;;
5604;SDS011;9297;47.258;11.362;2024-01-11T12:43:11;8.93;;;6.87;;
5604;SDS011;9297;47.258;11.362;2024-01-11T12:45:38;8.90;;;6.50;;
5604;SDS011;9297;47.258;11.362;2024-01-11T12:48:06;8.10;;;6.10;;
5604;SDS011;9297;47.258;11.362;2024-01-11T12:50:34;6.73;;;5.37;;
5604;SDS011;9297;47.258;11.362;2024-01-11T12:53:06;6.87;;;5.50;;
5604;SDS011;9297;47.258;11.362;2024-01-11T12:55:34;7.47;;;5.10;;
5604;SDS011;9297;47.258;11.362;2024-01-11T12:58:20;6.47;;;4.67;;
5604;SDS011;9297;47.258;11.362;2024-01-11T13:00:48;8.57;;;5.13;;
5604;SDS011;9297;47.258;11.362;2024-01-11T13:03:15;6.13;;;5.00;;
5604;SDS011;9297;47.258;11.362;2024-01-11T13:05:42;4.93;;;4.23;;
5604;SDS011;9297;47.258;11.362;2024-01-11T13:08:09;5.70;;;4.97;;
5604;SDS011;9297;47.258;11.362;2024-01-11T13:10:36;5.93;;;4.37;;
5604;SDS011;9297;47.258;11.362;2024-01-11T13:13:04;4.57;;;4.17;;
5604;SDS011;9297;47.258;11.362;2024-01-11T13:15:36;4.87;;;4.30;;
5604;SDS011;9297;47.258;11.362;2024-01-11T13:18:03;4.90;;;4.50;;
5604;SDS011;9297;47.258;11.362;2024-01-11T13:20:31;5.27;;;4.80;;
5604;SDS011;9297;47.258;11.362;2024-01-11T13:23:13;6.13;;;4.40;;
5604;SDS011;9297;47.258;11.362;2024-01-11T13:25:41;5.53;;;4.20;;
5604;SDS011;9297;47.258;11.362;2024-01-11T13:28:09;5.53;;;4.57;;
5604;SDS011;9297;47.258;11.362;2024-01-11T13:30:38;6.53;;;4.90;;
5604;SDS011;9297;47.258;11.362;2024-01-11T13:33:06;4.77;;;4.37;;
5604;SDS011;9297;47.258;11.362;2024-01-11T13:35:34;6.17;;;4.80;;
5604;SDS011;9297;47.258;11.362;2024-01-11T13:38:01;6.10;;;4.50;;
5604;SDS011;9297;47.258;11.362;2024-01-11T13:40:28;5.27;;;4.60;;
5604;SDS011;9297;47.258;11.362;2024-01-11T13:42:55;5.10;;;4.60;;
5604;SDS011;9297;47.258;11.362;2024-01-11T13:45:22;4.70;;;4.23;;
5604;SDS011;9297;47.258;11.362;2024-01-11T13:47:51;5.07;;;4.33;;
5604;SDS011;9297;47.258;11.362;2024-01-11T13:50:18;4.60;;;4.13;;
5604;SDS011;9297;47.258;11.362;2024-01-11T13:52:47;5.60;;;5.00;;
5604;SDS011;9297;47.258;11.362;2024-01-11T13:55:14;5.77;;;4.90;;
5604;SDS011;9297;47.258;11.362;2024-01-11T13:57:41;5.70;;;5.20;;
5604;SDS011;9297;47.258;11.362;2024-01-11T14:00:08;8.13;;;6.77;;
5604;SDS011;9297;47.258;11.362;2024-01-11T14:02:36;8.23;;;6.93;;
5604;SDS011;9297;47.258;11.362;2024-01-11T14:05:05;7.60;;;5.83;;
5604;SDS011;9297;47.258;11.362;2024-01-11T14:07:33;6.70;;;5.73;;
5604;SDS011;9297;47.258;11.362;2024-01-11T14:10:00;7.07;;;6.07;;
5604;SDS011;9297;47.258;11.362;2024-01-11T14:12:26;7.97;;;6.50;;
5604;SDS011;9297;47.258;11.362;2024-01-11T14:14:53;8.43;;;6.50;;
5604;SDS011;9297;47.258;11.362;2024-01-11T14:17:20;8.57;;;6.50;;
5604;SDS011;9297;47.258;11.362;2024-01-11T14:19:47;7.30;;;5.83;;
5604;SDS011;9297;47.258;11.362;2024-01-11T14:22:16;6.27;;;5.60;;
5604;SDS011;9297;47.258;11.362;2024-01-11T14:24:43;6.33;;;5.33;;
5604;SDS011;9297;47.258;11.362;2024-01-11T14:27:10;9.60;;;7.33;;
5604;SDS011;9297;47.258;11.362;2024-01-11T14:29:37;8.90;;;6.77;;
5604;SDS011;9297;47.258;11.362;2024-01-11T14:32:04;11.73;;;7.63;;
5604;SDS011;9297;47.258;11.362;2024-01-11T14:34:31;9.03;;;6.37;;
5604;SDS011;9297;47.258;11.362;2024-01-11T14:36:58;11.97;;;7.40;;
5604;SDS011;9297;47.258;11.362;2024-01-11T14:39:27;12.50;;;7.60;;
5604;SDS011;9297;47.258;11.362;2024-01-11T14:41:54;9.87;;;7.23;;
5604;SDS011;9297;47.258;11.362;2024-01-11T14:44:21;11.40;;;8.27;;
5604;SDS011;9297;47.258;11.362;2024-01-11T14:46:47;10.37;;;7.57;;
5604;SDS011;9297;47.258;11.362;2024-01-11T14:49:14;11.60;;;7.93;;
5604;SDS011;9297;47.258;11.362;2024-01-11T14:51:41;13.10;;;8.73;;
5604;SDS011;9297;47.258;11.362;2024-01-11T14:54:08;13.07;;;9.20;;
5604;SDS011;9297;47.258;11.362;2024-01-11T14:56:37;13.70;;;8.63;;
5604;SDS011;9297;47.258;11.362;2024-01-11T14:59:04;13.13;;;8.57;;
5604;SDS011;9297;47.258;11.362;2024-01-11T15:01:31;11.77;;;8.17;;
5604;SDS011;9297;47.258;11.362;2024-01-11T15:03:58;13.27;;;9.70;;
5604;SDS011;9297;47.258;11.362;2024-01-11T15:06:25;13.90;;;9.33;;
5604;SDS011;9297;47.258;11.362;2024-01-11T15:08:52;15.23;;;9.43;;
5604;SDS011;9297;47.258;11.362;2024-01-11T15:11:19;16.87;;;9.33;;
5604;SDS011;9297;47.258;11.362;2024-01-11T15:13:48;12.13;;;8.83;;
5604;SDS011;9297;47.258;11.362;2024-01-11T15:16:15;14.40;;;9.47;;
5604;SDS011;9297;47.258;11.362;2024-01-11T15:18:42;10.07;;;8.03;;
5604;SDS011;9297;47.258;11.362;2024-01-11T15:21:09;11.03;;;7.60;;
5604;SDS011;9297;47.258;11.362;2024-01-11T15:23:36;13.17;;;8.20;;
5604;SDS011;9297;47.258;11.362;2024-01-11T15:26:03;10.30;;;7.27;;
5604;SDS011;9297;47.258;11.362;2024-01-11T15:28:30;9.50;;;6.80;;
5604;SDS011;9297;47.258;11.362;2024-01-11T15:30:58;9.97;;;7.33;;
5604;SDS011;9297;47.258;11.362;2024-01-11T15:33:25;10.67;;;7.03;;
5604;SDS011;9297;47.258;11.362;2024-01-11T15:35:53;7.90;;;6.50;;
5604;SDS011;9297;47.258;11.362;2024-01-11T15:38:20;9.47;;;7.37;;
5604;SDS011;9297;47.258;11.362;2024-01-11T15:40:47;12.17;;;7.03;;
5604;SDS011;9297;47.258;11.362;2024-01-11T15:43:14;10.10;;;7.10;;
5604;SDS011;9297;47.258;11.362;2024-01-11T15:45:41;11.53;;;7.17;;
5604;SDS011;9297;47.258;11.362;2024-01-11T15:48:09;9.73;;;7.67;;
5604;SDS011;9297;47.258;11.362;2024-01-11T15:50:36;7.80;;;7.00;;
5604;SDS011;9297;47.258;11.362;2024-01-11T15:53:04;11.10;;;6.37;;
5604;SDS011;9297;47.258;11.362;2024-01-11T15:55:30;9.53;;;6.83;;
5604;SDS011;9297;47.258;11.362;2024-01-11T15:57:57;8.63;;;7.37;;
5604;SDS011;9297;47.258;11.362;2024-01-11T16:00:28;8.77;;;7.07;;
5604;SDS011;9297;47.258;11.362;2024-01-11T16:02:55;9.40;;;7.07;;
5604;SDS011;9297;47.258;11.362;2024-01-11T16:05:23;8.37;;;6.43;;
5604;SDS011;9297;47.258;11.362;2024-01-11T16:07:50;8.23;;;7.10;;
5604;SDS011;9297;47.258;11.362;2024-01-11T16:10:17;10.50;;;6.73;;
5604;SDS011;9297;47.258;11.362;2024-01-11T16:12:44;10.07;;;7.43;;